createdAt,value
2019-01-24T05:48:48.268Z,70.36
2019-01-24T05:49:48.251Z,69.55
2019-01-24T05:50:48.234Z,69.34
2019-01-24T05:51:48.238Z,70.07
2019-01-24T05:52:48.214Z,68.82
2019-01-24T05:53:48.204Z,69.37
2019-01-24T05:54:48.193Z,69.48
2019-01-24T05:55:48.183Z,70.24
2019-01-24T05:56:48.186Z,70.45
2019-01-24T05:57:48.171Z,71.50
2019-01-24T05:58:48.151Z,70.95
2019-01-24T05:59:48.146Z,70.76
2019-01-24T06:00:48.146Z,70.66
2019-01-24T06:01:48.171Z,70.35
2019-01-24T06:02:48.108Z,70.35
2019-01-24T06:03:48.110Z,70.45
2019-01-24T06:04:48.090Z,71.19
2019-01-24T06:05:55.112Z,71.08
2019-01-24T06:06:48.066Z,71.08
2019-01-24T06:07:48.080Z,70.42
2019-01-24T06:08:48.050Z,70.84
2019-01-24T06:09:48.035Z,70.42
2019-01-24T06:10:48.038Z,70.63
2019-01-24T06:11:48.018Z,70.84
2019-01-24T06:12:48.027Z,70.95
2019-01-24T06:13:48.000Z,71.15
2019-01-24T06:14:47.996Z,70.84
2019-01-24T06:15:47.985Z,70.73
2019-01-24T06:16:47.961Z,70.73
2019-01-24T06:17:47.974Z,71.47
2019-01-24T06:18:47.999Z,71.19
2019-01-24T06:19:47.932Z,71.58
2019-01-24T06:20:47.925Z,72.45
2019-01-24T06:21:47.918Z,72.13
2019-01-24T06:22:47.919Z,72.03
2019-01-24T06:23:47.890Z,71.61
2019-01-24T06:24:47.880Z,71.71
2019-01-24T06:25:47.880Z,71.81
2019-01-24T06:26:47.860Z,71.92
2019-01-24T06:27:47.871Z,71.71
2019-01-24T06:28:47.849Z,72.34
2019-01-24T06:29:47.831Z,72.45
2019-01-24T06:30:47.815Z,72.55
2019-01-24T06:31:47.808Z,72.13
2019-01-24T06:32:47.826Z,72.34
2019-01-24T06:33:47.786Z,71.81
2019-01-24T06:34:47.782Z,72.24
2019-01-24T06:35:48.894Z,71.71
2019-01-24T06:36:47.756Z,71.61
2019-01-24T06:37:47.778Z,72.16
2019-01-24T06:38:47.743Z,72.13
2019-01-24T06:39:47.723Z,72.27
2019-01-24T06:40:47.714Z,72.27
2019-01-24T06:41:47.706Z,71.85
2019-01-24T06:42:47.708Z,71.61
2019-01-24T06:43:47.688Z,72.48
2019-01-24T06:44:47.674Z,71.92
2019-01-24T06:45:47.671Z,71.61
2019-01-24T06:46:47.655Z,71.53
2019-01-24T06:47:47.684Z,72.48
2019-01-24T06:48:47.629Z,71.81
2019-01-24T06:49:47.626Z,71.29
2019-01-24T06:50:47.609Z,71.29
2019-01-24T06:51:47.612Z,70.98
2019-01-24T06:52:47.609Z,71.85
2019-01-24T06:53:47.578Z,72.03
2019-01-24T06:54:47.571Z,71.40
2019-01-24T06:55:47.559Z,72.03
2019-01-24T06:56:47.547Z,71.29
2019-01-24T06:57:47.554Z,70.98
2019-01-24T06:58:47.528Z,71.92
2019-01-24T06:59:47.517Z,71.61
2019-01-24T07:00:47.511Z,71.40
2019-01-24T07:01:47.494Z,70.56
2019-01-24T07:02:47.515Z,69.93
2019-01-24T07:03:47.478Z,70.14
2019-01-24T07:04:47.461Z,71.50
2019-01-24T07:05:47.453Z,70.76
2019-01-24T07:06:47.442Z,71.08
2019-01-24T07:07:47.452Z,71.50
2019-01-24T07:08:47.431Z,71.92
2019-01-24T07:09:47.419Z,71.78
2019-01-24T07:10:47.403Z,71.61
2019-01-24T07:11:47.394Z,71.08
2019-01-24T07:12:47.402Z,71.26
2019-01-24T07:13:47.372Z,70.53
2019-01-24T07:14:47.360Z,70.95
2019-01-24T07:15:47.357Z,70.35
2019-01-24T07:16:47.337Z,71.08
2019-01-24T07:17:47.343Z,70.45
2019-01-24T07:18:47.324Z,70.24
2019-01-24T07:19:47.306Z,69.82
2019-01-24T07:20:47.299Z,70.14
2019-01-24T07:21:47.328Z,70.87
2019-01-24T07:22:47.294Z,70.98
2019-01-24T07:23:47.269Z,71.64
2019-01-24T07:24:47.252Z,71.61
2019-01-24T07:25:47.243Z,71.75
2019-01-24T07:26:47.246Z,70.45
2019-01-24T07:27:47.254Z,71.29
2019-01-24T07:28:47.212Z,70.76
2019-01-24T07:29:47.203Z,70.90
2019-01-24T07:30:47.197Z,71.22
2019-01-24T07:31:47.180Z,71.85
2019-01-24T07:32:47.189Z,71.75
2019-01-24T07:33:47.162Z,70.69
2019-01-24T07:34:47.148Z,71.85
2019-01-24T07:35:47.138Z,71.33
2019-01-24T07:36:47.131Z,72.06
2019-01-24T07:37:47.148Z,71.71
2019-01-24T07:38:47.120Z,71.75
2019-01-24T07:39:47.095Z,71.11
2019-01-24T07:40:47.086Z,70.98
2019-01-24T07:41:47.072Z,71.08
2019-01-24T07:42:47.087Z,71.08
2019-01-24T07:43:47.062Z,71.08
2019-01-24T07:44:47.046Z,70.56
2019-01-24T07:45:47.030Z,72.13
2019-01-24T07:46:47.021Z,71.61
2019-01-24T07:47:47.038Z,71.29
2019-01-24T07:48:47.001Z,71.75
2019-01-24T07:49:46.988Z,70.56
2019-01-24T07:50:46.990Z,70.38
2019-01-24T07:51:47.008Z,71.08
2019-01-24T07:52:46.982Z,70.98
2019-01-24T07:53:46.950Z,70.87
2019-01-24T07:54:47.000Z,71.08
2019-01-24T07:55:46.926Z,70.66
2019-01-24T07:56:46.929Z,70.76
2019-01-24T07:57:46.941Z,70.31
2019-01-24T07:58:46.894Z,70.31
2019-01-24T07:59:46.884Z,70.73
2019-01-24T08:00:46.884Z,71.78
2019-01-24T08:01:46.863Z,70.45
2019-01-24T08:02:46.909Z,70.14
2019-01-24T08:03:46.843Z,70.03
2019-01-24T08:04:46.845Z,69.51
2019-01-24T08:05:46.824Z,70.87
2019-01-24T08:06:46.818Z,70.56
2019-01-24T08:07:46.800Z,70.35
2019-01-24T08:08:46.809Z,69.93
2019-01-24T08:09:46.783Z,69.82
2019-01-24T08:10:46.777Z,70.56
2019-01-24T08:11:46.758Z,70.76
2019-01-24T08:12:46.747Z,71.50
2019-01-24T08:13:46.765Z,71.40
2019-01-24T08:14:46.727Z,70.87
2019-01-24T08:15:46.717Z,71.61
2019-01-24T08:16:46.749Z,70.56
2019-01-24T08:17:46.695Z,70.87
2019-01-24T08:18:46.706Z,70.76
2019-01-24T08:19:46.677Z,69.61
2019-01-24T08:20:46.664Z,69.30
2019-01-24T08:21:46.655Z,69.93
2019-01-24T08:22:46.648Z,70.03
2019-01-24T08:23:46.662Z,70.35
2019-01-24T08:24:46.623Z,70.45
2019-01-24T08:25:46.614Z,70.87
2019-01-24T08:26:46.603Z,70.56
2019-01-24T08:27:46.590Z,70.66
2019-01-24T08:28:46.602Z,70.76
2019-01-24T08:29:46.573Z,71.08
2019-01-24T08:30:46.560Z,70.87
2019-01-24T08:31:46.549Z,71.53
2019-01-24T08:32:46.539Z,70.87
2019-01-24T08:33:46.549Z,71.22
2019-01-24T08:34:46.533Z,71.43
2019-01-24T08:35:46.509Z,70.87
2019-01-24T08:36:46.501Z,70.59
2019-01-24T08:37:46.488Z,70.59
2019-01-24T08:38:46.498Z,71.11
2019-01-24T08:39:46.467Z,71.75
2019-01-24T08:40:46.459Z,72.45
2019-01-24T08:41:46.455Z,71.75
2019-01-24T08:42:46.436Z,71.01
2019-01-24T08:43:46.442Z,71.92
2019-01-24T08:44:46.431Z,71.81
2019-01-24T08:45:46.404Z,70.98
2019-01-24T08:46:46.400Z,71.81
2019-01-24T08:47:46.395Z,70.98
2019-01-24T08:48:46.389Z,71.19
2019-01-24T08:49:46.384Z,70.56
2019-01-24T08:50:46.358Z,71.08
2019-01-24T08:51:46.346Z,70.98
2019-01-24T08:52:46.331Z,69.82
2019-01-24T08:53:46.332Z,69.71
2019-01-24T08:54:46.308Z,70.35
2019-01-24T08:55:46.312Z,70.66
2019-01-24T08:56:46.288Z,71.29
2019-01-24T08:57:46.279Z,70.98
2019-01-24T08:58:46.289Z,71.50
2019-01-24T08:59:46.267Z,71.71
2019-01-24T09:00:46.248Z,71.40
2019-01-24T09:01:46.235Z,71.50
2019-01-24T09:02:46.232Z,70.76
2019-01-24T09:03:46.244Z,71.08
2019-01-24T09:04:46.205Z,70.87
2019-01-24T09:05:46.197Z,71.81
2019-01-24T09:06:46.182Z,71.61
2019-01-24T09:07:46.173Z,71.71
2019-01-24T09:08:46.185Z,71.61
2019-01-24T09:09:46.152Z,72.20
2019-01-24T09:10:46.141Z,72.31
2019-01-24T09:11:46.146Z,72.41
2019-01-24T09:12:46.119Z,72.17
2019-01-24T09:13:46.128Z,71.65
2019-01-24T09:14:46.099Z,71.12
2019-01-24T09:15:46.090Z,72.28
2019-01-24T09:16:46.083Z,72.49
2019-01-24T09:17:46.075Z,72.69
2019-01-24T09:18:46.082Z,72.38
2019-01-24T09:19:46.048Z,72.59
2019-01-24T09:20:46.046Z,73.01
2019-01-24T09:21:46.026Z,73.01
2019-01-24T09:22:46.024Z,73.01
2019-01-24T09:23:46.022Z,72.98
2019-01-24T09:24:46.002Z,73.01
2019-01-24T09:25:45.990Z,72.59
2019-01-24T09:26:45.990Z,72.66
2019-01-24T09:27:45.965Z,72.69
2019-01-24T09:28:45.971Z,72.06
2019-01-24T09:29:45.955Z,72.38
2019-01-24T09:30:45.936Z,72.59
2019-01-24T09:31:45.928Z,73.11
2019-01-24T09:32:45.923Z,73.29
2019-01-24T09:33:45.924Z,73.54
2019-01-24T09:34:45.903Z,73.61
2019-01-24T09:35:45.880Z,74.06
2019-01-24T09:36:45.869Z,73.61
2019-01-24T09:37:45.865Z,73.11
2019-01-24T09:38:45.873Z,73.15
2019-01-24T09:39:45.842Z,73.74
2019-01-24T09:40:45.835Z,74.09
2019-01-24T09:41:45.833Z,73.68
2019-01-24T09:42:45.807Z,74.51
2019-01-24T09:43:45.821Z,75.11
2019-01-24T09:44:45.805Z,73.85
2019-01-24T09:45:45.777Z,74.37
2019-01-24T09:46:45.770Z,73.74
2019-01-24T09:47:45.767Z,74.27
2019-01-24T09:48:45.766Z,73.33
2019-01-24T09:49:45.735Z,73.29
2019-01-24T09:50:45.729Z,72.69
2019-01-24T09:51:45.717Z,72.69
2019-01-24T09:52:45.708Z,73.74
2019-01-24T09:53:45.707Z,73.74
2019-01-24T09:54:45.690Z,73.78
2019-01-24T09:55:45.672Z,73.99
2019-01-24T09:56:45.665Z,74.73
2019-01-24T09:57:45.650Z,75.18
2019-01-24T09:58:45.659Z,74.83
2019-01-24T09:59:45.640Z,74.83
2019-01-24T10:00:45.626Z,75.35
2019-01-24T10:01:45.613Z,75.07
2019-01-24T10:02:45.604Z,75.38
2019-01-24T10:03:45.609Z,76.33
2019-01-24T10:04:45.578Z,76.40
2019-01-24T10:05:45.572Z,76.43
2019-01-24T10:06:45.562Z,75.78
2019-01-24T10:07:45.551Z,75.91
2019-01-24T10:08:45.564Z,76.86
2019-01-24T10:09:45.524Z,77.70
2019-01-24T10:10:45.525Z,77.80
2019-01-24T10:11:45.511Z,77.70
2019-01-24T10:12:45.499Z,78.01
2019-01-24T10:13:45.486Z,77.59
2019-01-24T10:14:45.494Z,77.24
2019-01-24T10:15:45.466Z,76.96
2019-01-24T10:16:45.454Z,76.61
2019-01-24T10:17:45.462Z,76.12
2019-01-24T10:18:45.437Z,77.07
2019-01-24T10:19:45.442Z,76.43
2019-01-24T10:20:45.414Z,76.43
2019-01-24T10:21:45.422Z,76.96
2019-01-24T10:22:45.391Z,76.02
2019-01-24T10:23:45.382Z,75.81
2019-01-24T10:24:45.388Z,76.68
2019-01-24T10:25:45.359Z,77.00
2019-01-24T10:26:45.355Z,76.47
2019-01-24T10:27:45.339Z,76.79
2019-01-24T10:28:45.329Z,77.07
2019-01-24T10:29:45.335Z,76.89
2019-01-24T10:30:45.314Z,77.38
2019-01-24T10:31:46.444Z,77.07
2019-01-24T10:32:45.287Z,78.12
2019-01-24T10:33:45.287Z,77.28
2019-01-24T10:34:46.661Z,76.86
2019-01-24T10:35:45.255Z,76.33
2019-01-24T10:36:45.263Z,75.38
2019-01-24T10:37:45.245Z,75.28
2019-01-24T10:38:45.225Z,76.37
2019-01-24T10:39:45.231Z,75.07
2019-01-24T10:40:45.210Z,76.15
2019-01-24T10:41:45.203Z,75.49
2019-01-24T10:42:45.185Z,76.47
2019-01-24T10:43:45.178Z,76.89
2019-01-24T10:44:45.178Z,77.73
2019-01-24T10:45:45.152Z,77.94
2019-01-24T10:46:45.150Z,78.05
2019-01-24T10:47:45.131Z,77.73
2019-01-24T10:48:45.122Z,77.59
2019-01-24T10:49:45.126Z,77.73
2019-01-24T10:50:45.105Z,78.01
2019-01-24T10:51:45.098Z,78.15
2019-01-24T10:52:45.081Z,78.22
2019-01-24T10:53:45.069Z,78.12
2019-01-24T10:54:45.077Z,78.12
2019-01-24T10:55:45.055Z,78.26
2019-01-24T10:56:45.038Z,78.22
2019-01-24T10:57:45.029Z,78.26
2019-01-24T10:58:45.018Z,77.70
2019-01-24T10:59:45.027Z,77.21
2019-01-24T11:00:44.996Z,77.84
2019-01-24T11:01:44.995Z,77.94
2019-01-24T11:02:44.973Z,78.22
2019-01-24T11:03:44.965Z,78.53
2019-01-24T11:04:44.982Z,78.64
2019-01-24T11:05:44.943Z,78.85
2019-01-24T11:06:49.974Z,78.78
2019-01-24T11:07:45.929Z,78.99
2019-01-24T11:08:44.914Z,79.31
2019-01-24T11:09:44.919Z,79.62
2019-01-24T11:10:44.895Z,79.03
2019-01-24T11:11:44.900Z,80.15
2019-01-24T11:12:44.873Z,80.36
2019-01-24T11:13:44.862Z,80.08
2019-01-24T11:14:44.863Z,79.87
2019-01-24T11:15:44.838Z,80.08
2019-01-24T11:16:44.831Z,79.87
2019-01-24T11:17:44.817Z,79.77
2019-01-24T11:18:44.824Z,79.83
2019-01-24T11:19:44.825Z,79.55
2019-01-24T11:20:44.785Z,80.08
2019-01-24T11:21:44.786Z,79.97
2019-01-24T11:22:44.767Z,80.08
2019-01-24T11:23:44.770Z,80.71
2019-01-24T11:24:44.761Z,80.99
2019-01-24T11:25:44.737Z,80.50
2019-01-24T11:26:44.733Z,81.51
2019-01-24T11:27:44.722Z,80.99
2019-01-24T11:28:44.715Z,80.46
2019-01-24T11:29:44.711Z,79.83
2019-01-24T11:30:44.682Z,79.52
2019-01-24T11:31:44.678Z,79.73
2019-01-24T11:32:44.671Z,80.15
2019-01-24T11:33:44.656Z,79.73
2019-01-24T11:34:44.658Z,80.04
2019-01-24T11:35:44.630Z,80.04
2019-01-24T11:36:44.619Z,80.04
2019-01-24T11:37:44.625Z,80.68
2019-01-24T11:38:44.612Z,80.68
2019-01-24T11:39:44.614Z,81.09
2019-01-24T11:40:44.585Z,80.88
2019-01-24T11:41:44.567Z,81.20
2019-01-24T11:42:44.606Z,81.09
2019-01-24T11:43:44.548Z,81.62
2019-01-24T11:44:44.553Z,81.41
2019-01-24T11:45:44.532Z,80.46
2019-01-24T11:46:44.516Z,80.26
2019-01-24T11:47:44.516Z,80.15
2019-01-24T11:48:44.493Z,79.83
2019-01-24T11:49:44.505Z,79.58
2019-01-24T11:50:44.481Z,79.90
2019-01-24T11:51:44.462Z,80.15
2019-01-24T11:52:44.470Z,79.80
2019-01-24T11:53:44.441Z,80.04
2019-01-24T11:54:44.448Z,80.11
2019-01-24T11:55:44.422Z,79.90
2019-01-24T11:56:44.415Z,79.17
2019-01-24T11:57:44.419Z,78.64
2019-01-24T11:58:44.391Z,77.80
2019-01-24T11:59:44.402Z,77.91
2019-01-24T12:00:44.369Z,77.07
2019-01-24T12:01:44.363Z,76.09
2019-01-24T12:02:44.359Z,75.14
2019-01-24T12:03:44.342Z,76.40
2019-01-24T12:04:44.349Z,75.35
2019-01-24T12:05:44.314Z,75.67
2019-01-24T12:06:44.306Z,74.90
2019-01-24T12:07:44.296Z,75.04
2019-01-24T12:08:44.295Z,75.11
2019-01-24T12:09:44.300Z,74.65
2019-01-24T12:10:44.262Z,74.69
2019-01-24T12:11:44.255Z,74.13
2019-01-24T12:12:44.244Z,74.13
2019-01-24T12:13:44.235Z,73.71
2019-01-24T12:14:44.237Z,73.61
2019-01-24T12:15:44.228Z,73.68
2019-01-24T12:16:44.200Z,73.47
2019-01-24T12:17:44.199Z,73.15
2019-01-24T12:18:44.179Z,73.15
2019-01-24T12:19:44.182Z,72.77
2019-01-24T12:20:44.175Z,73.15
2019-01-24T12:21:44.164Z,73.36
2019-01-24T12:22:44.143Z,72.74
2019-01-24T12:23:44.131Z,73.15
2019-01-24T12:24:44.120Z,73.39
2019-01-24T12:25:44.120Z,73.61
2019-01-24T12:26:44.106Z,73.71
2019-01-24T12:27:44.085Z,73.89
2019-01-24T12:28:44.076Z,74.76
2019-01-24T12:29:44.067Z,74.62
2019-01-24T12:30:44.083Z,75.04
2019-01-24T12:31:44.045Z,74.73
2019-01-24T12:32:44.031Z,74.38
2019-01-24T12:33:44.036Z,73.85
2019-01-24T12:34:44.011Z,73.79
2019-01-24T12:35:44.020Z,73.36
2019-01-24T12:36:43.992Z,73.02
2019-01-24T12:37:43.982Z,73.15
2019-01-24T12:38:43.966Z,72.66
2019-01-24T12:39:43.971Z,73.39
2019-01-24T12:40:43.965Z,73.15
2019-01-24T12:41:43.947Z,72.74
2019-01-24T12:42:43.924Z,72.00
2019-01-24T12:43:43.916Z,72.74
2019-01-24T12:44:43.915Z,71.97
2019-01-24T12:45:43.910Z,71.97
2019-01-24T12:46:43.887Z,72.18
2019-01-24T12:47:43.881Z,72.28
2019-01-24T12:48:43.866Z,72.39
2019-01-24T12:49:43.856Z,72.56
2019-01-24T12:50:43.857Z,71.94
2019-01-24T12:51:43.840Z,72.04
2019-01-24T12:52:43.820Z,71.83
2019-01-24T12:53:43.813Z,71.94
2019-01-24T12:54:43.799Z,71.48
2019-01-24T12:55:43.804Z,71.20
2019-01-24T12:56:43.781Z,71.69
2019-01-24T12:57:43.772Z,71.38
2019-01-24T12:58:43.754Z,71.51
2019-01-24T12:59:43.754Z,70.89
2019-01-24T13:00:43.754Z,70.89
2019-01-24T13:01:43.725Z,70.89
2019-01-24T13:02:43.714Z,71.73
2019-01-24T13:03:43.705Z,70.86
2019-01-24T13:04:43.690Z,70.86
2019-01-24T13:05:43.695Z,71.31
2019-01-24T13:06:43.679Z,71.17
2019-01-24T13:07:43.658Z,70.78
2019-01-24T13:08:43.650Z,71.48
2019-01-24T13:09:43.645Z,70.37
2019-01-24T13:10:43.645Z,71.31
2019-01-24T13:11:43.616Z,71.51
2019-01-24T13:12:43.604Z,71.41
2019-01-24T13:13:43.602Z,71.20
2019-01-24T13:14:43.584Z,71.31
2019-01-24T13:15:43.592Z,71.20
2019-01-24T13:16:43.570Z,70.99
2019-01-24T13:17:43.554Z,70.68
2019-01-24T13:18:43.540Z,71.55
2019-01-24T13:19:43.529Z,71.48
2019-01-24T13:20:43.538Z,71.48
2019-01-24T13:21:43.515Z,71.66
2019-01-24T13:22:43.499Z,71.66
2019-01-24T13:23:43.487Z,72.28
2019-01-24T13:24:43.481Z,72.28
2019-01-24T13:25:43.479Z,71.97
2019-01-24T13:26:43.457Z,71.44
2019-01-24T13:27:43.441Z,71.55
2019-01-24T13:28:43.440Z,71.34
2019-01-24T13:29:43.422Z,71.41
2019-01-24T13:30:43.428Z,71.44
2019-01-24T13:31:43.406Z,71.73
2019-01-24T13:32:43.393Z,71.31
2019-01-24T13:33:43.384Z,71.76
2019-01-24T13:34:43.369Z,70.78
2019-01-24T13:35:43.386Z,70.81
2019-01-24T13:36:43.348Z,71.86
2019-01-24T13:37:43.337Z,70.89
2019-01-24T13:38:43.328Z,71.31
2019-01-24T13:39:43.334Z,71.44
2019-01-24T13:40:43.331Z,71.76
2019-01-24T13:41:43.301Z,71.34
2019-01-24T13:42:43.282Z,70.92
2019-01-24T13:43:43.271Z,70.92
2019-01-24T13:44:43.416Z,70.75
2019-01-24T13:45:43.263Z,71.37
2019-01-24T13:46:43.239Z,71.66
2019-01-24T13:47:43.229Z,70.85
2019-01-24T13:48:43.216Z,70.71
2019-01-24T13:49:43.206Z,71.76
2019-01-24T13:50:43.244Z,71.58
2019-01-24T13:51:43.199Z,71.23
2019-01-24T13:52:43.540Z,71.86
2019-01-24T13:53:43.162Z,71.03
2019-01-24T13:54:43.275Z,70.81
2019-01-24T13:55:43.142Z,70.71
2019-01-24T13:56:43.146Z,69.24
2019-01-24T13:57:43.124Z,70.08
2019-01-24T13:58:43.110Z,70.11
2019-01-24T13:59:43.147Z,69.35
2019-01-24T14:00:43.131Z,69.45
2019-01-24T14:01:43.096Z,69.67
2019-01-24T14:02:43.071Z,69.35
2019-01-24T14:03:43.062Z,70.29
2019-01-24T14:04:43.045Z,70.50
2019-01-24T14:05:43.036Z,69.98
2019-01-24T14:06:43.064Z,71.03
2019-01-24T14:07:43.127Z,71.55
2019-01-24T14:08:43.028Z,71.41
2019-01-24T14:09:42.997Z,71.62
2019-01-24T14:10:42.982Z,71.31
2019-01-24T14:11:42.992Z,71.51
2019-01-24T14:12:42.971Z,71.83
2019-01-24T14:13:42.949Z,71.10
2019-01-24T14:14:42.940Z,70.68
2019-01-24T14:15:42.940Z,70.26
2019-01-24T14:16:42.939Z,70.26
2019-01-24T14:17:42.907Z,70.89
2019-01-24T14:18:42.897Z,70.26
2019-01-24T14:19:42.890Z,69.21
2019-01-24T14:20:42.875Z,68.72
2019-01-24T14:21:42.885Z,68.16
2019-01-24T14:22:42.863Z,68.27
2019-01-24T14:23:42.845Z,68.59
2019-01-24T14:24:42.842Z,68.51
2019-01-24T14:25:42.824Z,68.06
2019-01-24T14:26:42.835Z,68.51
2019-01-24T14:27:42.817Z,68.48
2019-01-24T14:28:42.794Z,68.30
2019-01-24T14:29:42.786Z,68.06
2019-01-24T14:30:42.771Z,67.25
2019-01-24T14:31:42.777Z,67.08
2019-01-24T14:32:42.750Z,67.46
2019-01-24T14:33:42.745Z,68.02
2019-01-24T14:34:42.730Z,67.29
2019-01-24T14:35:42.719Z,66.20
2019-01-24T14:36:42.733Z,66.24
2019-01-24T14:37:42.696Z,66.20
2019-01-24T14:38:42.687Z,66.13
2019-01-24T14:39:42.678Z,66.20
2019-01-24T14:40:42.674Z,66.44
2019-01-24T14:41:42.673Z,66.76
2019-01-24T14:42:42.645Z,66.34
2019-01-24T14:43:42.634Z,65.08
2019-01-24T14:44:42.637Z,65.30
2019-01-24T14:45:42.616Z,65.81
2019-01-24T14:46:42.631Z,64.38
2019-01-24T14:47:42.594Z,64.69
2019-01-24T14:48:42.583Z,65.11
2019-01-24T14:49:42.572Z,65.30
2019-01-24T14:50:42.566Z,66.06
2019-01-24T14:51:42.578Z,66.34
2019-01-24T14:52:42.543Z,67.18
2019-01-24T14:53:42.530Z,67.15
2019-01-24T14:54:42.529Z,66.94
2019-01-24T14:55:42.512Z,66.97
2019-01-24T14:56:42.548Z,66.63
2019-01-24T14:57:42.493Z,67.25
2019-01-24T14:58:42.488Z,67.78
2019-01-24T14:59:42.469Z,68.41
2019-01-24T15:00:42.502Z,68.44
2019-01-24T15:01:42.446Z,68.44
2019-01-24T15:02:42.462Z,68.54
2019-01-24T15:03:42.428Z,67.18
2019-01-24T15:04:42.414Z,67.08
2019-01-24T15:05:42.404Z,67.39
2019-01-24T15:06:42.395Z,67.91
2019-01-24T15:07:47.127Z,68.47
2019-01-24T15:08:43.373Z,68.85
2019-01-24T15:09:42.366Z,68.68
2019-01-24T15:10:42.364Z,68.78
2019-01-24T15:11:42.345Z,69.10
2019-01-24T15:12:42.351Z,69.83
2019-01-24T15:13:42.322Z,69.38
2019-01-24T15:14:42.311Z,68.23
2019-01-24T15:15:42.300Z,68.44
2019-01-24T15:16:42.308Z,67.81
2019-01-24T15:17:42.346Z,68.33
2019-01-24T15:18:42.270Z,67.91
2019-01-24T15:19:42.260Z,68.33
2019-01-24T15:20:42.255Z,68.57
2019-01-24T15:21:42.240Z,68.47
2019-01-24T15:22:42.249Z,68.57
2019-01-24T15:23:42.223Z,68.26
2019-01-24T15:24:42.206Z,68.15
2019-01-24T15:25:42.197Z,68.15
2019-01-24T15:26:42.190Z,67.42
2019-01-24T15:27:42.192Z,66.93
2019-01-24T15:28:42.167Z,67.55
2019-01-24T15:29:42.151Z,66.72
2019-01-24T15:30:42.152Z,64.80
2019-01-24T15:31:42.132Z,65.01
2019-01-24T15:32:42.154Z,65.98
2019-01-24T15:33:42.110Z,66.47
2019-01-24T15:34:42.107Z,66.16
2019-01-24T15:35:42.087Z,66.79
2019-01-24T15:36:42.079Z,67.11
2019-01-24T15:37:42.085Z,67.94
2019-01-24T15:38:42.060Z,68.68
2019-01-24T15:39:42.049Z,68.18
2019-01-24T15:40:42.039Z,69.02
2019-01-24T15:41:42.036Z,69.65
2019-01-24T15:42:42.034Z,69.20
2019-01-24T15:43:42.004Z,69.31
2019-01-24T15:44:41.993Z,69.73
2019-01-24T15:45:41.985Z,69.52
2019-01-24T15:46:41.975Z,69.41
2019-01-24T15:47:41.999Z,69.62
2019-01-24T15:48:42.846Z,68.99
2019-01-24T15:49:41.948Z,68.89
2019-01-24T15:50:41.934Z,69.41
2019-01-24T15:51:41.926Z,69.31
2019-01-24T15:52:41.922Z,69.83
2019-01-24T15:53:41.923Z,69.20
2019-01-24T15:54:41.889Z,69.83
2019-01-24T15:55:41.878Z,69.20
2019-01-24T15:56:41.933Z,69.31
2019-01-24T15:57:41.863Z,69.20
2019-01-24T15:58:41.865Z,69.52
2019-01-24T15:59:41.852Z,69.73
2019-01-24T16:00:41.838Z,69.62
2019-01-24T16:01:41.826Z,69.41
2019-01-24T16:02:41.808Z,69.52
2019-01-24T16:03:41.811Z,69.31
2019-01-24T16:04:41.796Z,69.80
2019-01-24T16:05:41.779Z,69.62
2019-01-24T16:06:41.763Z,68.65
2019-01-24T16:07:41.760Z,68.75
2019-01-24T16:08:41.762Z,69.41
2019-01-24T16:09:41.738Z,68.37
2019-01-24T16:10:41.726Z,68.26
2019-01-24T16:11:41.710Z,68.78
2019-01-24T16:12:41.700Z,68.78
2019-01-24T16:13:41.796Z,69.34
2019-01-24T16:14:41.681Z,69.45
2019-01-24T16:15:41.667Z,69.26
2019-01-24T16:16:41.661Z,70.21
2019-01-24T16:17:41.647Z,71.58
2019-01-24T16:18:41.667Z,71.26
2019-01-24T16:19:41.628Z,70.42
2019-01-24T16:20:41.617Z,70.53
2019-01-24T16:21:41.615Z,70.70
2019-01-24T16:22:41.605Z,71.96
2019-01-24T16:23:41.631Z,70.50
2019-01-24T16:24:41.575Z,71.12
2019-01-24T16:25:41.564Z,70.70
2019-01-24T16:26:41.554Z,70.07
2019-01-24T16:27:41.546Z,69.97
2019-01-24T16:28:41.533Z,70.36
2019-01-24T16:29:41.541Z,69.10
2019-01-24T16:30:41.526Z,69.41
2019-01-24T16:31:41.508Z,68.78
2019-01-24T16:32:41.490Z,68.78
2019-01-24T16:33:41.487Z,68.60
2019-01-24T16:34:41.501Z,68.37
2019-01-24T16:35:41.462Z,68.47
2019-01-24T16:36:41.451Z,68.68
2019-01-24T16:37:41.451Z,69.83
2019-01-24T16:38:41.436Z,69.31
2019-01-24T16:39:41.433Z,70.25
2019-01-24T16:40:41.409Z,70.67
2019-01-24T16:41:41.404Z,69.34
2019-01-24T16:42:41.390Z,70.28
2019-01-24T16:43:41.377Z,70.18
2019-01-24T16:44:41.385Z,70.78
2019-01-24T16:45:41.363Z,69.55
2019-01-24T16:46:41.347Z,69.45
2019-01-24T16:47:41.345Z,70.04
2019-01-24T16:48:41.322Z,69.93
2019-01-24T16:49:41.331Z,69.10
2019-01-24T16:50:41.301Z,69.31
2019-01-24T16:51:41.291Z,69.62
2019-01-24T16:52:41.287Z,69.41
2019-01-24T16:53:41.285Z,69.41
2019-01-24T16:54:41.284Z,69.93
2019-01-24T16:55:41.250Z,69.52
2019-01-24T16:56:41.242Z,69.31
2019-01-24T16:57:41.238Z,69.62
2019-01-24T16:58:41.224Z,69.83
2019-01-24T16:59:41.276Z,70.67
2019-01-24T17:00:41.203Z,70.15
2019-01-24T17:01:41.186Z,70.25
2019-01-24T17:02:41.177Z,69.62
2019-01-24T17:03:41.175Z,69.20
2019-01-24T17:04:41.158Z,68.85
2019-01-24T17:05:41.209Z,68.78
2019-01-24T17:06:41.135Z,68.57
2019-01-24T17:07:41.125Z,68.78
2019-01-24T17:08:41.114Z,69.62
2019-01-24T17:09:41.114Z,68.57
2019-01-24T17:10:41.108Z,68.15
2019-01-24T17:11:41.087Z,67.74
2019-01-24T17:12:41.083Z,68.18
2019-01-24T17:13:41.066Z,68.29
2019-01-24T17:14:41.051Z,69.23
2019-01-24T17:15:42.195Z,69.48
2019-01-24T17:16:41.034Z,69.48
2019-01-24T17:17:41.023Z,69.55
2019-01-24T17:18:41.028Z,69.48
2019-01-24T17:19:41.000Z,69.13
2019-01-24T17:20:41.008Z,69.37
2019-01-24T17:21:40.984Z,70.31
2019-01-24T17:22:40.968Z,71.19
2019-01-24T17:23:40.958Z,70.84
2019-01-24T17:24:40.957Z,70.95
2019-01-24T17:25:40.956Z,69.79
2019-01-24T17:26:40.934Z,69.37
2019-01-24T17:27:46.100Z,70.00
2019-01-24T17:28:41.917Z,70.31
2019-01-24T17:29:40.901Z,70.00
2019-01-24T17:30:40.907Z,70.18
2019-01-24T17:31:40.883Z,69.86
2019-01-24T17:32:40.867Z,69.34
2019-01-24T17:33:40.855Z,68.71
2019-01-24T17:34:40.845Z,68.60
2019-01-24T17:35:40.910Z,68.74
2019-01-24T17:36:40.855Z,69.34
2019-01-24T17:37:40.814Z,69.16
2019-01-24T17:38:40.810Z,69.16
2019-01-24T17:39:40.811Z,69.26
2019-01-24T17:40:40.843Z,69.90
2019-01-24T17:41:40.770Z,69.58
2019-01-24T17:42:40.764Z,70.42
2019-01-24T17:43:40.750Z,70.42
2019-01-24T17:44:40.752Z,71.26
2019-01-24T17:45:40.771Z,71.58
2019-01-24T17:46:40.737Z,71.89
2019-01-24T17:47:40.735Z,71.68
2019-01-24T17:48:40.697Z,70.84
2019-01-24T17:49:40.691Z,70.95
2019-01-24T17:50:40.675Z,71.54
2019-01-24T17:51:40.681Z,71.15
2019-01-24T17:52:40.657Z,70.95
2019-01-24T17:53:40.650Z,70.63
2019-01-24T17:54:40.640Z,70.31
2019-01-24T17:55:40.626Z,70.73
2019-01-24T17:56:40.632Z,70.95
2019-01-24T17:57:40.604Z,71.89
2019-01-24T17:58:40.591Z,71.68
2019-01-24T17:59:40.594Z,71.47
2019-01-24T18:00:40.570Z,71.05
2019-01-24T18:01:40.577Z,72.10
2019-01-24T18:02:40.551Z,72.31
2019-01-24T18:03:40.540Z,72.34
2019-01-24T18:04:40.529Z,72.24
2019-01-24T18:05:40.534Z,72.45
2019-01-24T18:06:40.528Z,71.40
2019-01-24T18:07:40.500Z,72.41
2019-01-24T18:08:40.490Z,72.86
2019-01-24T18:09:40.479Z,72.13
2019-01-24T18:10:40.480Z,72.45
2019-01-24T18:11:40.473Z,72.24
2019-01-24T18:12:40.452Z,71.71
2019-01-24T18:13:40.435Z,71.61
2019-01-24T18:14:40.425Z,70.95
2019-01-24T18:15:40.414Z,72.20
2019-01-24T18:16:40.425Z,72.66
2019-01-24T18:17:40.397Z,72.13
2019-01-24T18:18:40.387Z,72.24
2019-01-24T18:19:40.380Z,72.03
2019-01-24T18:20:40.362Z,71.81
2019-01-24T18:21:40.368Z,71.40
2019-01-24T18:22:40.344Z,71.61
2019-01-24T18:23:40.331Z,71.61
2019-01-24T18:24:40.337Z,71.50
2019-01-24T18:25:40.320Z,71.40
2019-01-24T18:26:40.321Z,71.61
2019-01-24T18:27:40.293Z,72.13
2019-01-24T18:28:40.279Z,71.61
2019-01-24T18:29:40.270Z,72.24
2019-01-24T18:30:40.295Z,72.13
2019-01-24T18:31:40.264Z,72.03
2019-01-24T18:32:40.244Z,72.13
2019-01-24T18:33:40.227Z,72.66
2019-01-24T18:34:40.216Z,72.13
2019-01-24T18:35:40.207Z,72.45
2019-01-24T18:36:40.215Z,71.61
2019-01-24T18:37:40.185Z,71.75
2019-01-24T18:38:40.178Z,72.13
2019-01-24T18:39:40.200Z,72.13
2019-01-24T18:40:40.153Z,71.92